Time;durP1;ratioP1;P1;durP2;ratioP2;P2;SDS_P1;SDS_P2;PMS_P1;PMS_P2;Temp;Humidity;BMP_temperature;BMP_pressure;BME280_temperature;BME280_humidity;BME280_pressure;Samples;Min_cycle;Max_cycle;Signal;HPM_P1;HPM_P2
2022/11/27 00:01:22;;;;;;;4.03;1.92;;;20.40;50.30;;;;;;5001356;28;20030;-58
2022/11/27 00:03:48;;;;;;;3.22;2.08;;;20.40;50.30;;;;;;4993142;28;20058;-60
2022/11/27 00:06:19;;;;;;;3.42;2.08;;;20.30;50.20;;;;;;4994016;28;20030;-57
2022/11/27 00:08:46;;;;;;;3.65;2.10;;;20.30;50.20;;;;;;4993544;28;20080;-57
2022/11/27 00:11:18;;;;;;;2.38;1.85;;;20.30;50.20;;;;;;4993338;28;20034;-58
2022/11/27 00:13:44;;;;;;;2.78;2.00;;;20.20;50.10;;;;;;4995025;28;20042;-57
2022/11/27 00:16:11;;;;;;;3.20;1.80;;;20.20;50.10;;;;;;4995130;28;20454;-58
2022/11/27 00:18:37;;;;;;;4.80;2.22;;;20.20;50.10;;;;;;4993046;28;20054;-58
2022/11/27 00:21:09;;;;;;;2.00;1.77;;;20.20;50.10;;;;;;4991826;28;20666;-59
2022/11/27 00:23:35;;;;;;;4.25;2.20;;;20.20;50.10;;;;;;4994365;28;20065;-59
2022/11/27 00:26:01;;;;;;;1.95;1.75;;;20.10;50.00;;;;;;4992947;28;20042;-62
2022/11/27 00:28:27;;;;;;;3.15;1.95;;;20.10;50.00;;;;;;4992515;28;20037;-60
2022/11/27 00:30:58;;;;;;;2.67;1.60;;;20.10;50.00;;;;;;4992696;28;20042;-58
2022/11/27 00:33:23;;;;;;;3.53;2.13;;;20.10;49.90;;;;;;4993807;28;20100;-58
2022/11/27 00:35:49;;;;;;;2.30;1.98;;;20.10;50.00;;;;;;4991284;28;20041;-59
2022/11/27 00:38:14;;;;;;;3.13;1.90;;;20.10;50.00;;;;;;4994205;28;20599;-61
2022/11/27 00:40:40;;;;;;;3.58;2.10;;;20.10;49.90;;;;;;4991509;28;20050;-58
2022/11/27 00:43:06;;;;;;;2.92;1.80;;;20.00;49.80;;;;;;4992763;28;20434;-57
2022/11/27 00:45:31;;;;;;;3.47;2.03;;;20.00;49.80;;;;;;4992588;28;20045;-60
2022/11/27 00:47:57;;;;;;;2.40;1.58;;;20.00;49.80;;;;;;4994167;28;20053;-57
2022/11/27 00:50:23;;;;;;;2.78;1.80;;;20.00;49.70;;;;;;4993588;28;20061;-60
2022/11/27 00:52:48;;;;;;;3.67;2.25;;;20.00;49.70;;;;;;4992560;28;20052;-61
2022/11/27 00:55:14;;;;;;;3.17;1.60;;;20.00;49.70;;;;;;4991366;28;20145;-58
2022/11/27 00:57:39;;;;;;;4.60;2.38;;;19.90;49.60;;;;;;4993442;28;20038;-60
2022/11/27 01:00:06;;;;;;;2.70;1.90;;;19.90;49.60;;;;;;4992719;28;20033;-57
2022/11/27 01:02:31;;;;;;;2.72;2.00;;;19.90;49.60;;;;;;4992368;28;20175;-58
2022/11/27 01:04:57;;;;;;;2.03;1.83;;;19.90;49.60;;;;;;4993295;28;21760;-57
2022/11/27 01:07:24;;;;;;;2.97;1.90;;;19.90;49.50;;;;;;4991069;28;20053;-61
2022/11/27 01:09:50;;;;;;;4.68;1.90;;;19.90;49.50;;;;;;4992480;28;20050;-59
2022/11/27 01:12:15;;;;;;;2.78;1.70;;;19.90;49.50;;;;;;4991343;28;20382;-58
2022/11/27 01:14:41;;;;;;;2.75;2.17;;;19.90;49.50;;;;;;4979324;28;20073;-58
2022/11/27 01:17:06;;;;;;;3.28;2.08;;;19.90;49.40;;;;;;4993934;28;20042;-56
2022/11/27 01:19:32;;;;;;;4.00;2.05;;;19.80;49.40;;;;;;4991110;28;20100;-57
2022/11/27 01:21:58;;;;;;;3.53;1.88;;;19.80;49.40;;;;;;4993742;28;20080;-59
2022/11/27 01:24:23;;;;;;;2.47;1.80;;;19.80;49.30;;;;;;4992430;28;20129;-58
2022/11/27 01:26:49;;;;;;;2.53;1.90;;;19.80;49.40;;;;;;4991848;28;20486;-58
2022/11/27 01:29:14;;;;;;;2.40;1.88;;;19.80;49.30;;;;;;4994108;28;20038;-58
2022/11/27 01:31:40;;;;;;;3.35;2.08;;;19.80;49.30;;;;;;4993521;28;20031;-58
2022/11/27 01:34:12;;;;;;;2.15;1.63;;;19.80;49.30;;;;;;4992516;28;20480;-61
2022/11/27 01:36:37;;;;;;;2.95;1.85;;;19.80;49.20;;;;;;4992466;28;20056;-59
2022/11/27 01:39:04;;;;;;;3.53;2.28;;;19.70;49.20;;;;;;4992177;28;20085;-58
2022/11/27 01:41:32;;;;;;;3.08;2.00;;;19.70;49.20;;;;;;4991986;28;20825;-59
2022/11/27 01:44:00;;;;;;;2.08;1.77;;;19.70;49.10;;;;;;4993277;28;20409;-59
2022/11/27 01:46:44;;;;;;;3.88;1.95;;;19.70;49.80;;;;;;4991138;28;20045;-58
2022/11/27 01:49:09;;;;;;;4.35;2.13;;;19.70;48.90;;;;;;4993533;28;20041;-57
2022/11/27 01:51:39;;;;;;;2.70;2.15;;;19.70;49.00;;;;;;4993900;28;20046;-57
2022/11/27 01:54:07;;;;;;;2.90;2.10;;;19.70;49.00;;;;;;5008695;28;20049;-57
2022/11/27 01:56:32;;;;;;;3.60;2.20;;;19.70;48.90;;;;;;4992905;28;20045;-58
2022/11/27 01:58:59;;;;;;;4.18;2.17;;;19.70;48.90;;;;;;4991796;28;20048;-57
2022/11/27 02:01:25;;;;;;;2.88;1.95;;;19.70;48.90;;;;;;4993263;28;20057;-60
2022/11/27 02:03:53;;;;;;;3.55;1.92;;;19.70;48.90;;;;;;4990911;28;20550;-57
2022/11/27 02:06:19;;;;;;;3.50;2.05;;;19.70;48.90;;;;;;4990802;28;20081;-58
2022/11/27 02:08:44;;;;;;;4.95;2.28;;;19.60;48.80;;;;;;4993525;28;20478;-59
2022/11/27 02:11:41;;;;;;;3.47;2.15;;;19.60;48.80;;;;;;4992828;28;20038;-57
2022/11/27 02:14:31;;;;;;;4.45;2.35;;;19.70;48.70;;;;;;4993031;28;20042;-58
2022/11/27 02:17:02;;;;;;;2.50;1.90;;;19.60;48.60;;;;;;4991429;28;20185;-57
2022/11/27 02:19:57;;;;;;;3.10;1.95;;;19.60;48.70;;;;;;4991303;28;20042;-59
2022/11/27 02:22:42;;;;;;;3.95;2.35;;;19.60;48.60;;;;;;5002165;28;20132;-58
2022/11/27 02:25:36;;;;;;;2.28;1.70;;;19.60;48.50;;;;;;4993852;28;20046;-58
2022/11/27 02:28:30;;;;;;;4.38;2.33;;;19.50;48.50;;;;;;4994928;28;20049;-58
2022/11/27 02:31:21;;;;;;;2.55;2.05;;;19.50;48.50;;;;;;4992851;28;20044;-57
2022/11/27 02:33:49;;;;;;;;;;;19.50;48.40;;;;;;4994417;28;20052;-58
2022/11/27 02:36:21;;;;;;;2.78;2.05;;;19.50;48.30;;;;;;5025452;28;19928;-58
2022/11/27 02:38:58;;;;;;;3.50;1.88;;;19.50;48.70;;;;;;4996166;28;20132;-57
2022/11/27 02:41:29;;;;;;;5.53;2.08;;;19.40;48.60;;;;;;4994948;28;20129;-61
2022/11/27 02:43:55;;;;;;;3.92;1.98;;;19.40;48.50;;;;;;4994849;28;20044;-58
2022/11/27 02:46:21;;;;;;;2.97;1.80;;;19.50;48.50;;;;;;4996448;28;20112;-58
2022/11/27 02:49:01;;;;;;;3.17;1.90;;;19.50;48.50;;;;;;4995802;28;20038;-58
2022/11/27 02:51:34;;;;;;;3.67;2.10;;;19.50;48.40;;;;;;4996850;28;20050;-58
2022/11/27 02:54:04;;;;;;;2.85;2.13;;;19.50;48.40;;;;;;4996239;28;20046;-58
2022/11/27 02:56:31;;;;;;;2.33;1.90;;;19.40;48.40;;;;;;4997609;28;20053;-58
2022/11/27 02:59:01;;;;;;;2.55;1.75;;;19.50;48.40;;;;;;4995422;28;20042;-58
2022/11/27 03:01:31;;;;;;;3.47;1.95;;;19.40;48.30;;;;;;4994945;28;20038;-58
2022/11/27 03:04:00;;;;;;;2.57;1.60;;;19.40;48.30;;;;;;4994690;28;20056;-58
2022/11/27 03:06:30;;;;;;;5.00;2.47;;;19.40;48.30;;;;;;4995035;28;20068;-57
2022/11/27 03:09:18;;;;;;;4.00;1.90;;;19.40;48.30;;;;;;4993786;28;20538;-56
2022/11/27 03:11:45;;;;;;;3.85;2.10;;;19.40;48.10;;;;;;4996126;28;20073;-57
2022/11/27 03:14:12;;;;;;;3.30;1.95;;;19.40;48.20;;;;;;4995978;28;20037;-58
2022/11/27 03:17:08;;;;;;;3.10;2.03;;;19.40;48.20;;;;;;4993658;28;20050;-58
2022/11/27 03:19:34;;;;;;;3.10;1.92;;;19.40;48.10;;;;;;4996347;28;20095;-58
2022/11/27 03:22:02;;;;;;;2.90;1.70;;;19.40;48.20;;;;;;4995333;28;20469;-59
2022/11/27 03:24:29;;;;;;;3.60;2.00;;;19.40;48.20;;;;;;4995325;28;20076;-58
2022/11/27 03:26:57;;;;;;;2.85;2.10;;;19.40;48.10;;;;;;4996257;28;20038;-58
2022/11/27 03:29:42;;;;;;;3.25;1.75;;;19.40;48.20;;;;;;4993578;28;20490;-57
2022/11/27 03:32:08;;;;;;;2.67;1.85;;;19.40;48.00;;;;;;4992511;28;20038;-61
2022/11/27 03:34:35;;;;;;;2.92;1.90;;;19.30;48.10;;;;;;4997036;28;20500;-59
2022/11/27 03:37:01;;;;;;;3.13;1.70;;;19.40;48.10;;;;;;4994615;28;20038;-57
2022/11/27 03:39:28;;;;;;;2.25;1.48;;;19.30;48.00;;;;;;4992511;28;20046;-58
2022/11/27 03:42:29;;;;;;;3.13;1.95;;;19.30;47.90;;;;;;4995154;28;20042;-58
2022/11/27 03:45:10;;;;;;;2.35;1.58;;;19.30;47.80;;;;;;4995939;28;20042;-57
2022/11/27 03:47:58;;;;;;;4.20;1.90;;;19.30;48.00;;;;;;4992834;28;20125;-58
2022/11/27 03:50:51;;;;;;;2.92;1.70;;;19.30;48.00;;;;;;4995014;28;20484;-58
2022/11/27 03:53:51;;;;;;;3.17;1.80;;;19.30;48.00;;;;;;4993427;28;20125;-58
2022/11/27 03:56:31;;;;;;;2.38;1.45;;;19.30;48.00;;;;;;4989604;28;20058;-60
2022/11/27 03:59:22;;;;;;;2.83;1.70;;;19.20;48.00;;;;;;4992915;28;20042;-58
2022/11/27 04:01:48;;;;;;;;;;;19.30;47.90;;;;;;4990575;28;20113;-61
2022/11/27 04:04:14;;;;;;;2.50;1.38;;;19.20;47.80;;;;;;4994163;28;19925;-58
2022/11/27 04:06:39;;;;;;;2.30;1.67;;;19.20;48.10;;;;;;4996934;28;20541;-57
2022/11/27 04:09:05;;;;;;;3.35;1.80;;;19.20;48.10;;;;;;4994554;28;20034;-58
2022/11/27 04:11:31;;;;;;;2.00;1.48;;;19.20;48.00;;;;;;4994377;28;20477;-58
2022/11/27 04:13:57;;;;;;;2.10;1.60;;;19.20;48.00;;;;;;4991807;28;20030;-58
2022/11/27 04:16:22;;;;;;;2.13;1.70;;;19.20;48.00;;;;;;4992440;28;20406;-60
2022/11/27 04:18:48;;;;;;;1.92;1.48;;;19.20;48.00;;;;;;4991724;28;20484;-61
2022/11/27 04:21:13;;;;;;;2.05;1.45;;;19.20;47.90;;;;;;4995030;28;20050;-57
2022/11/27 04:23:39;;;;;;;2.47;1.48;;;19.20;47.90;;;;;;4992256;28;20038;-60
2022/11/27 04:26:05;;;;;;;2.38;1.55;;;19.20;47.90;;;;;;4994248;28;20034;-61
2022/11/27 04:28:31;;;;;;;1.75;1.40;;;19.20;47.80;;;;;;4994670;28;20523;-59
2022/11/27 04:30:57;;;;;;;3.30;1.70;;;19.10;47.80;;;;;;4991982;28;20030;-58
2022/11/27 04:33:23;;;;;;;2.28;1.63;;;19.20;47.80;;;;;;4994667;28;20050;-58
2022/11/27 04:35:50;;;;;;;3.05;1.83;;;19.20;47.80;;;;;;4993601;28;20743;-58
2022/11/27 04:38:16;;;;;;;3.22;1.75;;;19.20;47.80;;;;;;4993332;28;20038;-58
2022/11/27 04:40:42;;;;;;;2.50;1.52;;;19.10;47.70;;;;;;4994082;28;20069;-58
2022/11/27 04:43:08;;;;;;;2.05;1.50;;;19.10;47.70;;;;;;4991644;28;20153;-58
2022/11/27 04:45:34;;;;;;;3.00;1.35;;;19.10;47.70;;;;;;4993413;28;20034;-58
2022/11/27 04:47:59;;;;;;;1.80;1.40;;;19.10;47.70;;;;;;4992517;28;20611;-59
2022/11/27 04:50:25;;;;;;;2.03;1.40;;;19.10;47.70;;;;;;4992709;28;20104;-57
2022/11/27 04:52:50;;;;;;;2.28;1.40;;;19.20;47.80;;;;;;4993400;28;20049;-57
2022/11/27 04:55:16;;;;;;;2.03;1.60;;;19.10;47.70;;;;;;4991394;28;20076;-57
2022/11/27 04:57:42;;;;;;;2.20;1.63;;;19.10;47.70;;;;;;4993822;28;20038;-58
2022/11/27 05:00:08;;;;;;;2.33;1.55;;;19.10;47.70;;;;;;4991686;28;20049;-59
2022/11/27 05:02:34;;;;;;;2.25;1.67;;;19.10;47.70;;;;;;4993065;28;20058;-58
2022/11/27 05:04:59;;;;;;;2.70;1.70;;;19.10;47.70;;;;;;4992805;28;20083;-59
2022/11/27 05:07:25;;;;;;;2.00;1.45;;;19.10;47.70;;;;;;4989950;28;21652;-57
2022/11/27 05:09:51;;;;;;;2.65;1.58;;;19.10;47.70;;;;;;4990953;28;20126;-58
2022/11/27 05:12:17;;;;;;;2.33;1.48;;;19.10;47.60;;;;;;4995130;28;20045;-58
2022/11/27 05:14:42;;;;;;;3.40;1.52;;;19.10;47.70;;;;;;4993163;28;20881;-57
2022/11/27 05:17:09;;;;;;;2.92;1.67;;;19.10;47.70;;;;;;4993008;28;20054;-58
2022/11/27 05:19:34;;;;;;;1.60;1.30;;;19.10;47.60;;;;;;4993548;28;20041;-58
2022/11/27 05:22:00;;;;;;;2.47;1.48;;;19.10;47.60;;;;;;4992488;28;20046;-58
2022/11/27 05:24:28;;;;;;;2.65;1.40;;;19.00;47.50;;;;;;4992633;28;20099;-59
2022/11/27 05:26:55;;;;;;;2.13;1.42;;;19.00;47.60;;;;;;4993859;28;20566;-60
2022/11/27 05:29:21;;;;;;;1.92;1.40;;;19.00;47.60;;;;;;4991534;28;20069;-57
2022/11/27 05:31:47;;;;;;;2.25;1.30;;;19.00;47.60;;;;;;4991690;28;20042;-58
2022/11/27 05:34:13;;;;;;;2.72;1.33;;;19.00;47.60;;;;;;4992908;28;20506;-59
2022/11/27 05:36:38;;;;;;;2.67;1.27;;;19.00;47.60;;;;;;4993178;28;20030;-57
2022/11/27 05:39:06;;;;;;;1.55;1.30;;;19.00;47.40;;;;;;4991921;28;20518;-58
2022/11/27 05:41:33;;;;;;;3.10;1.33;;;19.00;47.50;;;;;;4992024;28;20049;-60
2022/11/27 05:43:59;;;;;;;2.72;1.50;;;19.00;47.50;;;;;;4992753;28;20425;-61
2022/11/27 05:46:24;;;;;;;1.58;1.48;;;19.00;47.50;;;;;;4991685;28;20038;-60
2022/11/27 05:48:50;;;;;;;3.03;1.52;;;19.00;47.50;;;;;;4990754;28;20069;-57
2022/11/27 05:51:17;;;;;;;2.88;1.30;;;19.00;47.40;;;;;;4992950;28;20034;-57
2022/11/27 05:53:43;;;;;;;2.35;1.63;;;19.00;47.40;;;;;;4992152;28;20033;-58
2022/11/27 05:56:14;;;;;;;2.22;1.40;;;18.90;47.30;;;;;;4993028;28;20540;-59
2022/11/27 05:58:41;;;;;;;2.35;1.10;;;19.00;47.40;;;;;;4995117;28;20041;-57
2022/11/27 06:01:08;;;;;;;2.08;1.20;;;19.00;47.40;;;;;;4994726;28;20532;-59
2022/11/27 06:03:34;;;;;;;2.40;1.38;;;19.00;47.40;;;;;;4996304;28;20038;-57
2022/11/27 06:06:12;;;;;;;2.55;1.40;;;19.00;47.70;;;;;;4998681;28;20045;-58
2022/11/27 06:08:39;;;;;;;1.35;1.20;;;19.00;47.30;;;;;;4995294;28;20688;-58
2022/11/27 06:11:17;;;;;;;2.13;1.50;;;18.90;47.30;;;;;;4996280;28;20029;-57
2022/11/27 06:13:44;;;;;;;1.88;1.25;;;18.90;47.30;;;;;;4996796;28;20049;-58
2022/11/27 06:16:15;;;;;;;1.83;1.42;;;19.00;47.40;;;;;;4996517;28;20053;-56
2022/11/27 06:18:42;;;;;;;2.13;1.30;;;18.90;47.30;;;;;;4996786;28;20080;-58
2022/11/27 06:21:10;;;;;;;2.67;1.50;;;18.90;47.40;;;;;;4996659;28;20054;-58
2022/11/27 06:23:37;;;;;;;2.05;1.60;;;18.90;47.30;;;;;;4997127;28;20046;-60
2022/11/27 06:26:15;;;;;;;2.08;1.30;;;18.90;47.30;;;;;;4994965;28;20050;-57
2022/11/27 06:28:41;;;;;;;3.42;1.45;;;18.90;47.20;;;;;;4996407;28;20049;-57
2022/11/27 06:31:13;;;;;;;2.58;1.25;;;18.90;47.30;;;;;;4996784;28;20073;-59
2022/11/27 06:33:39;;;;;;;2.55;1.60;;;18.90;47.20;;;;;;4997489;28;20046;-57
2022/11/27 06:36:06;;;;;;;2.03;1.60;;;18.90;47.30;;;;;;4995509;28;20762;-56
2022/11/27 06:38:33;;;;;;;2.58;1.60;;;18.90;47.30;;;;;;4995269;28;20046;-59
2022/11/27 06:41:07;;;;;;;2.75;1.40;;;18.90;47.20;;;;;;4995091;28;20053;-57
2022/11/27 06:43:33;;;;;;;2.85;1.35;;;18.80;47.10;;;;;;4994249;28;20046;-59
2022/11/27 06:46:00;;;;;;;1.33;1.00;;;18.80;47.20;;;;;;4996501;28;20038;-57
2022/11/27 06:48:26;;;;;;;2.75;1.23;;;18.80;47.20;;;;;;4996073;28;20038;-60
2022/11/27 06:50:52;;;;;;;1.83;1.40;;;18.80;47.20;;;;;;4994612;28;20500;-58
2022/11/27 06:53:18;;;;;;;1.85;1.33;;;18.80;47.10;;;;;;4995283;28;20037;-60
2022/11/27 06:55:43;;;;;;;2.65;1.88;;;18.80;47.30;;;;;;4995901;28;20081;-57
2022/11/27 06:58:10;;;;;;;1.48;1.20;;;18.80;47.10;;;;;;4996633;28;20077;-59
2022/11/27 07:00:35;;;;;;;2.53;1.55;;;18.80;47.20;;;;;;4996577;28;20469;-58
2022/11/27 07:03:01;;;;;;;1.90;1.20;;;18.80;47.20;;;;;;4997259;28;20053;-59
2022/11/27 07:05:28;;;;;;;2.08;1.20;;;18.80;47.10;;;;;;4994023;28;20462;-57
2022/11/27 07:07:54;;;;;;;2.10;1.50;;;18.80;47.20;;;;;;4994485;28;20389;-57
2022/11/27 07:10:20;;;;;;;1.98;1.30;;;18.80;47.10;;;;;;4995564;28;20037;-61
2022/11/27 07:12:46;;;;;;;1.75;1.30;;;18.80;47.10;;;;;;4997317;28;20036;-58
2022/11/27 07:15:12;;;;;;;1.80;1.38;;;18.80;47.10;;;;;;4997239;28;20470;-58
2022/11/27 07:17:38;;;;;;;2.03;1.20;;;18.80;47.10;;;;;;5012329;28;20042;-59
2022/11/27 07:20:04;;;;;;;1.60;1.30;;;18.80;47.10;;;;;;4994924;28;20034;-58
2022/11/27 07:22:31;;;;;;;1.98;1.40;;;18.80;47.10;;;;;;4995052;28;20518;-57
2022/11/27 07:24:57;;;;;;;1.70;1.45;;;18.80;47.10;;;;;;4995517;28;20044;-58
2022/11/27 07:27:22;;;;;;;2.70;1.80;;;18.80;47.10;;;;;;4994745;28;20042;-58
2022/11/27 07:29:48;;;;;;;3.40;1.40;;;18.70;47.10;;;;;;4994815;28;20486;-57
2022/11/27 07:32:13;;;;;;;1.60;1.30;;;18.70;47.10;;;;;;4993625;28;20034;-57
2022/11/27 07:34:39;;;;;;;2.38;1.30;;;18.70;47.10;;;;;;4994605;28;20045;-59
2022/11/27 07:37:05;;;;;;;2.80;1.75;;;18.70;47.10;;;;;;4995360;28;20568;-57
2022/11/27 07:39:30;;;;;;;2.40;1.80;;;18.70;47.10;;;;;;4994271;28;20120;-58
2022/11/27 07:41:56;;;;;;;2.00;1.75;;;18.70;47.10;;;;;;4995677;28;20493;-59
2022/11/27 07:44:22;;;;;;;3.08;1.70;;;18.70;47.10;;;;;;4995466;28;20042;-59
2022/11/27 07:46:47;;;;;;;2.88;1.58;;;18.70;47.00;;;;;;4994448;28;20065;-60
2022/11/27 07:49:13;;;;;;;2.60;1.70;;;18.70;47.10;;;;;;4993185;28;20034;-57
2022/11/27 07:51:38;;;;;;;2.65;1.42;;;18.70;47.00;;;;;;4993743;28;20038;-61
2022/11/27 07:54:04;;;;;;;2.13;1.40;;;18.70;47.10;;;;;;4993210;28;20045;-61
2022/11/27 07:56:30;;;;;;;2.60;1.52;;;18.70;47.10;;;;;;4993514;28;20038;-61
2022/11/27 07:58:57;;;;;;;1.55;1.30;;;18.70;47.10;;;;;;4996806;28;20038;-57
2022/11/27 08:01:23;;;;;;;2.60;1.55;;;18.70;47.10;;;;;;4992528;28;20700;-57
2022/11/27 08:03:48;;;;;;;4.22;1.83;;;18.70;47.10;;;;;;4989475;28;20046;-57
2022/11/27 08:06:20;;;;;;;4.63;1.50;;;18.70;47.00;;;;;;4993416;28;20046;-58
2022/11/27 08:08:47;;;;;;;3.97;1.83;;;18.70;47.30;;;;;;4994437;28;20493;-57
2022/11/27 08:11:17;;;;;;;6.47;1.80;;;18.90;47.30;;;;;;4992789;28;20054;-58
2022/11/27 08:13:43;;;;;;;3.90;1.60;;;19.40;46.60;;;;;;4991301;28;20524;-58
2022/11/27 08:16:08;;;;;;;3.88;1.85;;;20.00;45.50;;;;;;4993762;28;20042;-57
2022/11/27 08:18:34;;;;;;;4.53;1.45;;;20.70;44.30;;;;;;4993158;28;20042;-58
2022/11/27 08:21:00;;;;;;;4.07;2.25;;;21.20;43.40;;;;;;4992167;28;20039;-56
2022/11/27 08:23:25;;;;;;;3.15;1.75;;;21.50;42.70;;;;;;4992318;28;20437;-58
2022/11/27 08:25:51;;;;;;;6.20;1.60;;;21.60;42.50;;;;;;4994700;28;20615;-57
2022/11/27 08:28:16;;;;;;;6.00;1.73;;;21.50;42.60;;;;;;4990917;28;20088;-59
2022/11/27 08:30:42;;;;;;;6.55;1.83;;;21.40;42.80;;;;;;4992707;28;20538;-56
2022/11/27 08:33:09;;;;;;;4.57;1.65;;;21.30;43.00;;;;;;4989441;28;20469;-57
2022/11/27 08:35:35;;;;;;;3.40;1.73;;;21.30;43.10;;;;;;4993278;28;21083;-59
2022/11/27 08:38:00;;;;;;;4.85;1.83;;;21.30;43.20;;;;;;4990354;28;20045;-59
2022/11/27 08:40:26;;;;;;;8.32;1.88;;;21.20;43.40;;;;;;4990718;28;20946;-60
2022/11/27 08:42:52;;;;;;;6.95;1.67;;;21.10;43.80;;;;;;4991430;28;20379;-58
2022/11/27 08:45:17;;;;;;;4.22;1.90;;;20.90;44.00;;;;;;4992082;28;20128;-57
2022/11/27 08:47:43;;;;;;;7.05;1.85;;;20.80;44.20;;;;;;4989929;28;20153;-58
2022/11/27 08:50:09;;;;;;;3.83;1.80;;;20.80;44.40;;;;;;4990943;28;20065;-57
2022/11/27 08:52:35;;;;;;;4.55;2.20;;;20.70;44.50;;;;;;4991279;28;20073;-59
2022/11/27 08:55:00;;;;;;;7.70;2.28;;;20.80;44.60;;;;;;4991429;28;20061;-56
2022/11/27 08:57:26;;;;;;;6.97;2.10;;;20.70;44.60;;;;;;4990197;28;20041;-58
2022/11/27 08:59:51;;;;;;;5.05;2.22;;;20.70;44.60;;;;;;4989329;28;20408;-57
2022/11/27 09:02:17;;;;;;;3.60;1.85;;;20.70;44.70;;;;;;4989166;28;20092;-59
2022/11/27 09:04:43;;;;;;;7.35;2.22;;;20.70;44.80;;;;;;4988765;28;20540;-60
2022/11/27 09:07:11;;;;;;;6.25;2.20;;;20.70;44.90;;;;;;4989215;28;20100;-57
2022/11/27 09:09:36;;;;;;;5.97;2.10;;;20.70;45.00;;;;;;4989891;28;20679;-56
2022/11/27 09:12:02;;;;;;;4.50;2.10;;;20.70;45.20;;;;;;4988991;28;20122;-60
2022/11/27 09:14:28;;;;;;;3.20;1.92;;;20.80;45.30;;;;;;4987981;28;20065;-60
2022/11/27 09:16:54;;;;;;;3.45;2.10;;;20.80;45.30;;;;;;4987748;28;20107;-57
2022/11/27 09:19:20;;;;;;;3.63;2.17;;;20.70;45.30;;;;;;4993269;28;20157;-59
2022/11/27 09:21:49;;;;;;;6.50;2.55;;;20.80;45.40;;;;;;4990959;28;20049;-59
2022/11/27 09:24:15;;;;;;;4.35;2.40;;;20.80;45.40;;;;;;4992542;28;20104;-58
2022/11/27 09:26:40;;;;;;;3.33;2.15;;;20.80;45.50;;;;;;4989603;28;20375;-58
2022/11/27 09:29:06;;;;;;;6.03;2.45;;;20.80;45.50;;;;;;4990588;28;20045;-58
2022/11/27 09:31:31;;;;;;;4.13;2.40;;;20.80;45.60;;;;;;4990772;28;20378;-59
2022/11/27 09:33:57;;;;;;;3.45;2.10;;;20.80;45.60;;;;;;4990634;28;20034;-58
2022/11/27 09:36:25;;;;;;;4.35;2.20;;;20.80;45.60;;;;;;4989490;28;20046;-58
2022/11/27 09:38:51;;;;;;;2.90;2.25;;;20.80;45.60;;;;;;4993111;28;20492;-60
2022/11/27 09:41:44;;;;;;;4.68;2.20;;;20.90;45.60;;;;;;4994411;28;20043;-58
2022/11/27 09:44:41;;;;;;;5.07;2.20;;;21.00;45.60;;;;;;4993627;28;20802;-58
2022/11/27 09:47:40;;;;;;;5.68;2.70;;;21.00;45.40;;;;;;4992421;28;20136;-59
2022/11/27 09:50:15;;;;;;;5.72;2.63;;;21.10;45.50;;;;;;4991108;28;20069;-57
2022/11/27 09:52:46;;;;;;;5.13;2.17;;;21.20;45.40;;;;;;4992766;28;20149;-57
2022/11/27 09:55:30;;;;;;;3.15;2.20;;;21.20;45.30;;;;;;4991225;28;20042;-56
2022/11/27 09:58:06;;;;;;;3.22;2.15;;;21.30;45.20;;;;;;4990877;28;20097;-58
2022/11/27 10:00:32;;;;;;;4.13;2.33;;;21.30;45.20;;;;;;4991848;28;20048;-57
2022/11/27 10:02:58;;;;;;;6.38;2.80;;;21.30;45.10;;;;;;4993274;28;20042;-58
2022/11/27 10:05:46;;;;;;;7.13;2.67;;;21.30;45.10;;;;;;4992147;28;20034;-57
2022/11/27 10:08:41;;;;;;;5.10;2.83;;;21.40;45.20;;;;;;4993554;28;20636;-60
2022/11/27 10:11:19;;;;;;;6.05;2.10;;;21.40;45.30;;;;;;4994028;28;20118;-61
2022/11/27 10:14:03;;;;;;;3.20;2.30;;;21.40;45.40;;;;;;4992854;28;20045;-59
2022/11/27 10:16:40;;;;;;;3.42;2.47;;;21.50;45.70;;;;;;4997864;28;20074;-58
2022/11/27 10:19:23;;;;;;;4.72;2.60;;;21.50;45.80;;;;;;4999939;28;20045;-58
2022/11/27 10:21:52;;;;;;;5.57;2.42;;;21.50;45.80;;;;;;4993206;28;20042;-61
2022/11/27 10:24:50;;;;;;;5.07;2.40;;;21.50;45.90;;;;;;4989760;28;20053;-58
2022/11/27 10:28:08;;;;;;;8.52;2.90;;;21.50;45.90;;;;;;4993095;28;20045;-57
2022/11/27 10:31:04;;;;;;;4.13;2.45;;;21.50;45.90;;;;;;4951363;28;20458;-60
2022/11/27 10:33:39;;;;;;;3.97;2.53;;;21.50;45.90;;;;;;4987511;28;20380;-59
2022/11/27 10:36:13;;;;;;;2.88;2.58;;;21.60;45.90;;;;;;4993466;28;20046;-57
2022/11/27 10:38:40;;;;;;;4.72;2.80;;;21.60;45.90;;;;;;4992019;28;20062;-58
2022/11/27 10:41:10;;;;;;;3.42;2.30;;;21.60;45.90;;;;;;4991518;28;20061;-57
2022/11/27 10:43:36;;;;;;;5.93;2.90;;;21.60;45.90;;;;;;4993578;28;20057;-57
2022/11/27 10:46:12;;;;;;;6.18;2.45;;;21.60;45.90;;;;;;4993094;28;20072;-57
2022/11/27 10:48:38;;;;;;;4.78;2.42;;;21.60;45.90;;;;;;4992061;28;20303;-58
2022/11/27 10:51:17;;;;;;;6.18;3.08;;;21.60;46.00;;;;;;4988946;28;20539;-58
2022/11/27 10:53:46;;;;;;;3.67;2.60;;;21.60;46.20;;;;;;4992363;28;20041;-58
2022/11/27 10:56:13;;;;;;;6.45;2.78;;;21.60;46.30;;;;;;4990339;28;20042;-59
2022/11/27 10:58:42;;;;;;;3.80;2.45;;;21.70;46.40;;;;;;4991458;28;20053;-59
2022/11/27 11:01:17;;;;;;;5.32;2.78;;;21.60;46.40;;;;;;4993417;28;20176;-57
2022/11/27 11:03:43;;;;;;;5.47;2.70;;;21.70;46.60;;;;;;4990697;28;20046;-58
2022/11/27 11:06:23;;;;;;;5.93;2.80;;;21.70;46.60;;;;;;4990809;28;20370;-58
2022/11/27 11:09:17;;;;;;;5.60;2.70;;;21.70;46.70;;;;;;4990883;28;20049;-61
2022/11/27 11:11:43;;;;;;;5.53;2.88;;;21.70;46.80;;;;;;4989185;28;20778;-58
2022/11/27 11:14:24;;;;;;;3.95;2.63;;;21.70;46.70;;;;;;4991539;28;20129;-58
2022/11/27 11:16:52;;;;;;;3.80;2.50;;;21.70;46.70;;;;;;4977395;28;20053;-61
2022/11/27 11:19:24;;;;;;;5.05;2.70;;;21.70;46.60;;;;;;4992078;28;20046;-60
2022/11/27 11:21:50;;;;;;;3.45;2.40;;;21.70;46.70;;;;;;4993512;28;20096;-59
2022/11/27 11:24:25;;;;;;;3.28;2.22;;;21.80;46.70;;;;;;4997515;28;20424;-58
2022/11/27 11:27:10;;;;;;;3.65;2.13;;;21.70;46.60;;;;;;4998478;28;20069;-58
2022/11/27 11:29:54;;;;;;;5.95;3.22;;;21.80;46.60;;;;;;4984349;28;20041;-58
2022/11/27 11:32:24;;;;;;;5.85;2.60;;;21.70;46.60;;;;;;4991850;28;20069;-59
2022/11/27 11:35:07;;;;;;;3.75;2.80;;;21.80;46.70;;;;;;4993464;28;20038;-59
2022/11/27 11:37:35;;;;;;;4.47;2.80;;;21.80;46.60;;;;;;4993673;28;20049;-58
2022/11/27 11:40:04;;;;;;;6.80;2.70;;;21.80;47.40;;;;;;4991056;28;20399;-58
2022/11/27 11:42:32;;;;;;;4.30;2.80;;;21.80;46.80;;;;;;4986877;28;20151;-60
2022/11/27 11:45:10;;;;;;;6.82;3.03;;;21.80;46.80;;;;;;4993354;28;20049;-59
2022/11/27 11:47:47;;;;;;;4.32;2.80;;;21.80;46.80;;;;;;4994844;28;20188;-58
2022/11/27 11:50:33;;;;;;;6.75;2.63;;;21.80;47.00;;;;;;4992068;28;20036;-57
2022/11/27 11:53:13;;;;;;;4.68;2.70;;;21.80;46.70;;;;;;4986793;28;20046;-59
2022/11/27 11:56:16;;;;;;;3.92;2.92;;;21.80;46.70;;;;;;4990797;28;20129;-58
2022/11/27 11:58:44;;;;;;;3.40;2.50;;;21.80;46.60;;;;;;4992508;28;20039;-60
2022/11/27 12:01:12;;;;;;;5.03;2.80;;;21.80;46.60;;;;;;4995342;28;20034;-57
2022/11/27 12:03:50;;;;;;;6.00;2.60;;;21.80;46.50;;;;;;4983693;28;20042;-59
2022/11/27 12:06:42;;;;;;;5.55;2.35;;;21.80;46.40;;;;;;4991625;28;20577;-58
2022/11/27 12:09:31;;;;;;;7.47;2.72;;;21.80;46.30;;;;;;4977715;28;20112;-59
2022/11/27 12:12:29;;;;;;;4.05;2.17;;;21.80;46.30;;;;;;4986676;28;20049;-59
2022/11/27 12:15:36;;;;;;;6.43;2.63;;;21.80;46.10;;;;;;4985600;28;20049;-61
2022/11/27 12:18:26;;;;;;;4.47;2.42;;;21.80;46.10;;;;;;4963562;28;20148;-59
2022/11/27 12:21:14;;;;;;;4.68;2.50;;;21.80;46.10;;;;;;4988735;28;20552;-59
2022/11/27 12:23:52;;;;;;;4.20;2.65;;;21.80;46.00;;;;;;4992340;28;20180;-59
2022/11/27 12:26:45;;;;;;;5.78;2.67;;;21.80;46.00;;;;;;4992048;28;20034;-57
2022/11/27 12:30:01;;;;;;;5.38;2.75;;;21.80;45.90;;;;;;4990462;28;20042;-61
2022/11/27 12:32:56;;;;;;;9.00;2.97;;;21.80;45.80;;;;;;4955762;28;20125;-58
2022/11/27 12:35:34;;;;;;;6.90;2.72;;;21.80;46.00;;;;;;4991200;28;20441;-60
2022/11/27 12:38:24;;;;;;;6.80;2.45;;;21.80;46.00;;;;;;4990054;28;20062;-59
2022/11/27 12:41:16;;;;;;;7.37;2.50;;;21.80;46.00;;;;;;4992038;28;20035;-60
2022/11/27 12:43:58;;;;;;;4.07;2.47;;;21.80;45.90;;;;;;4992205;28;20148;-60
2022/11/27 12:46:50;;;;;;;6.47;2.50;;;21.80;45.90;;;;;;4990603;28;20084;-59
2022/11/27 12:49:20;;;;;;;6.43;2.55;;;21.80;45.90;;;;;;4994057;28;20431;-60
2022/11/27 12:52:07;;;;;;;5.65;2.47;;;21.80;45.90;;;;;;4993178;28;20489;-58
2022/11/27 12:55:00;;;;;;;11.43;3.00;;;21.90;46.00;;;;;;4989779;28;20037;-60
2022/11/27 12:57:49;;;;;;;7.78;3.50;;;21.80;46.70;;;;;;4991269;28;20472;-56
2022/11/27 13:00:22;;;;;;;6.97;3.97;;;21.90;46.00;;;;;;4993070;28;20046;-55
2022/11/27 13:02:53;;;;;;;4.20;3.13;;;21.90;46.10;;;;;;4994335;28;20045;-58
2022/11/27 13:05:25;;;;;;;4.70;3.13;;;21.90;46.40;;;;;;4989185;28;20054;-59
2022/11/27 13:08:15;;;;;;;5.35;3.38;;;21.80;46.00;;;;;;4989358;28;20050;-58
2022/11/27 13:10:45;;;;;;;6.13;3.58;;;21.90;46.00;;;;;;4984505;28;20037;-59